Time;durP1;ratioP1;P1;durP2;ratioP2;P2;SDS_P1;SDS_P2;PMS_P1;PMS_P2;Temp;Humidity;BMP_temperature;BMP_pressure;BME280_temperature;BME280_humidity;BME280_pressure;Samples;Min_cycle;Max_cycle;Signal;HPM_P1;HPM_P2
2022/07/07 00:00:14;;;;;;;2.15;2.00;;;;;;;17.37;62.66;97214.06;5133503;27;20193;-52
2022/07/07 00:02:40;;;;;;;1.38;1.10;;;;;;;17.29;63.33;97212.25;5132031;27;20246;-52
2022/07/07 00:05:08;;;;;;;4.18;1.58;;;;;;;17.35;64.56;97210.75;5133054;27;20204;-51
2022/07/07 00:07:36;;;;;;;2.10;1.55;;;;;;;17.42;62.94;97211.72;5132619;27;20205;-52
2022/07/07 00:10:03;;;;;;;2.08;1.58;;;;;;;17.38;63.76;97208.56;5132828;27;20196;-52
2022/07/07 00:12:30;;;;;;;1.63;1.50;;;;;;;17.46;62.93;97213.06;5131949;27;20216;-52
2022/07/07 00:14:57;;;;;;;1.67;1.20;;;;;;;17.49;62.53;97209.19;5132860;27;20205;-51
2022/07/07 00:17:23;;;;;;;1.30;1.20;;;;;;;17.54;61.96;97210.31;5132198;27;20228;-52
2022/07/07 00:19:52;;;;;;;2.28;1.17;;;;;;;17.48;64.62;97211.03;5132776;27;20299;-51
2022/07/07 00:22:19;;;;;;;2.03;1.50;;;;;;;17.50;65.31;97217.03;5131876;27;20280;-52
2022/07/07 00:24:46;;;;;;;1.98;1.40;;;;;;;17.58;62.17;97218.88;5132287;27;20204;-52
2022/07/07 00:27:15;;;;;;;1.98;1.48;;;;;;;17.60;62.97;97214.19;5131840;27;20201;-52
2022/07/07 00:29:43;;;;;;;3.22;1.38;;;;;;;17.66;60.95;97221.53;5132783;27;20200;-52
2022/07/07 00:32:14;;;;;;;2.35;1.30;;;;;;;17.74;59.72;97214.31;5132686;27;20580;-52
2022/07/07 00:34:41;;;;;;;2.72;1.20;;;;;;;17.81;59.30;97212.63;5132441;27;20945;-52
2022/07/07 00:37:07;;;;;;;2.25;1.63;;;;;;;17.86;57.64;97204.03;5131878;27;20727;-52
2022/07/07 00:39:35;;;;;;;2.88;1.45;;;;;;;17.89;57.33;97206.38;5131900;27;20215;-52
2022/07/07 00:42:03;;;;;;;2.17;1.50;;;;;;;17.93;56.83;97205.00;5132413;27;20203;-52
2022/07/07 00:44:31;;;;;;;1.52;1.33;;;;;;;17.98;56.67;97201.81;5132425;27;20207;-52
2022/07/07 00:46:59;;;;;;;2.03;1.48;;;;;;;18.06;55.89;97209.81;5131986;27;20295;-51
2022/07/07 00:49:26;;;;;;;1.48;1.20;;;;;;;18.06;56.51;97210.66;5130828;27;20204;-51
2022/07/07 00:51:53;;;;;;;2.00;1.35;;;;;;;18.06;53.98;97204.47;5140985;27;20275;-52
2022/07/07 00:54:20;;;;;;;3.67;1.30;;;;;;;18.03;56.82;97197.59;5157110;27;20200;-53
2022/07/07 00:56:48;;;;;;;2.22;1.55;;;;;;;18.04;56.17;97206.47;5158830;27;20191;-52
2022/07/07 00:59:17;;;;;;;1.50;1.40;;;;;;;18.02;53.88;97203.13;5141848;28;20196;-52
2022/07/07 01:01:44;;;;;;;3.15;1.40;;;;;;;18.01;57.20;97206.81;5140800;28;20678;-52
2022/07/07 01:04:13;;;;;;;3.35;1.52;;;;;;;18.01;57.69;97204.13;5134389;27;20231;-52
2022/07/07 01:06:39;;;;;;;3.25;1.42;;;;;;;18.02;56.59;97200.47;5136323;27;20520;-52
2022/07/07 01:09:07;;;;;;;1.60;1.50;;;;;;;18.08;55.92;97194.41;5136611;27;20207;-52
2022/07/07 01:11:50;;;;;;;3.17;1.65;;;;;;;18.02;57.04;97203.13;5136269;27;20238;-52
2022/07/07 01:14:17;;;;;;;2.13;1.40;;;;;;;18.03;56.72;97197.59;5136382;27;20261;-51
2022/07/07 01:16:44;;;;;;;5.03;1.13;;;;;;;18.00;56.89;97195.28;5136146;27;21385;-52
2022/07/07 01:19:14;;;;;;;1.88;1.40;;;;;;;17.93;57.01;97199.66;5136084;27;20192;-52
2022/07/07 01:21:52;;;;;;;1.60;1.50;;;;;;;17.92;58.89;97191.81;5136411;27;20189;-51
2022/07/07 01:24:27;;;;;;;1.75;1.50;;;;;;;17.96;58.19;97191.28;5136199;27;20184;-52
2022/07/07 01:27:05;;;;;;;1.67;1.58;;;;;;;17.88;58.12;97186.81;5135588;27;20632;-52
2022/07/07 01:29:35;;;;;;;2.53;1.30;;;;;;;17.85;57.59;97187.16;5136132;27;20334;-52
2022/07/07 01:32:04;;;;;;;3.10;1.77;;;;;;;17.86;58.22;97191.50;5136166;27;20554;-52
2022/07/07 01:34:31;;;;;;;3.78;1.88;;;;;;;17.84;56.75;97180.16;5136102;27;20189;-52
2022/07/07 01:36:58;;;;;;;2.97;1.50;;;;;;;17.76;57.90;97174.00;5137462;27;20295;-52
2022/07/07 01:39:26;;;;;;;2.95;1.55;;;;;;;17.68;58.88;97180.22;5137294;27;20284;-52
2022/07/07 01:41:53;;;;;;;3.20;1.40;;;;;;;17.61;60.55;97178.41;5135755;27;20197;-52
2022/07/07 01:44:22;;;;;;;1.38;1.27;;;;;;;17.59;59.54;97183.09;5137559;27;20196;-52
2022/07/07 01:46:49;;;;;;;2.38;1.60;;;;;;;17.44;61.27;97193.66;5135822;27;20205;-51
2022/07/07 01:49:16;;;;;;;2.83;1.42;;;;;;;17.35;63.29;97197.38;5135560;27;20208;-51
2022/07/07 01:51:46;;;;;;;2.45;1.60;;;;;;;17.40;61.86;97193.16;5135795;27;20246;-51
2022/07/07 01:54:13;;;;;;;2.50;1.50;;;;;;;17.39;61.07;97196.03;5135060;27;20215;-51
2022/07/07 01:56:41;;;;;;;2.47;1.42;;;;;;;17.23;62.38;97188.88;5135453;27;20291;-52
2022/07/07 01:59:13;;;;;;;4.18;1.50;;;;;;;17.14;62.92;97192.59;5135019;27;20215;-53
2022/07/07 02:01:41;;;;;;;2.92;1.63;;;;;;;17.10;62.58;97195.75;5139841;27;20521;-52
2022/07/07 02:04:08;;;;;;;1.33;1.30;;;;;;;17.12;63.17;97188.41;5141464;27;20236;-51
2022/07/07 02:06:34;;;;;;;1.83;1.65;;;;;;;17.08;63.64;97184.38;5136080;27;20211;-51
2022/07/07 02:09:01;;;;;;;2.20;1.80;;;;;;;17.02;63.29;97190.41;5137257;27;20280;-52
2022/07/07 02:11:30;;;;;;;2.70;1.55;;;;;;;17.13;62.04;97188.25;5139947;27;20287;-51
2022/07/07 02:13:59;;;;;;;2.03;1.73;;;;;;;17.16;62.02;97189.72;5142710;27;20249;-52
2022/07/07 02:16:27;;;;;;;1.50;1.40;;;;;;;17.17;62.03;97191.41;5134023;27;20208;-51
2022/07/07 02:18:57;;;;;;;3.22;1.42;;;;;;;17.16;65.43;97190.56;5134838;27;20211;-52
2022/07/07 02:21:26;;;;;;;1.95;1.40;;;;;;;17.14;62.73;97192.59;5135474;27;20193;-52
2022/07/07 02:23:57;;;;;;;1.60;1.50;;;;;;;17.16;63.02;97197.75;5134030;27;20636;-52
2022/07/07 02:26:23;;;;;;;2.55;1.50;;;;;;;17.13;65.55;97190.06;5135008;27;20284;-52
2022/07/07 02:28:53;;;;;;;1.85;1.52;;;;;;;17.09;64.72;97194.91;5134925;27;20295;-52
2022/07/07 02:31:23;;;;;;;2.00;1.55;;;;;;;17.15;63.62;97198.75;5135190;27;20228;-51
2022/07/07 02:33:50;;;;;;;1.70;1.30;;;;;;;17.13;67.40;97196.25;5135262;27;20244;-51
2022/07/07 02:36:19;;;;;;;1.75;1.63;;;;;;;17.11;64.51;97192.09;5134801;27;20292;-52
2022/07/07 02:38:49;;;;;;;1.60;1.50;;;;;;;17.12;63.65;97185.72;5135243;27;20295;-52
2022/07/07 02:41:17;;;;;;;1.75;1.52;;;;;;;17.03;65.26;97181.41;5135080;27;20208;-53
2022/07/07 02:43:46;;;;;;;1.87;1.70;;;;;;;16.91;66.51;97181.75;5134347;27;20228;-52
2022/07/07 02:46:12;;;;;;;2.03;1.40;;;;;;;16.93;64.50;97178.94;5133880;27;20654;-52
2022/07/07 02:48:40;;;;;;;2.42;1.25;;;;;;;16.81;67.83;97181.09;5134553;27;20311;-51
2022/07/07 02:51:08;;;;;;;2.85;1.63;;;;;;;16.85;66.01;97170.91;5134485;27;20215;-51
2022/07/07 02:53:36;;;;;;;2.10;1.67;;;;;;;16.72;67.99;97175.94;5134601;27;20230;-52
2022/07/07 02:56:03;;;;;;;2.42;1.58;;;;;;;16.58;68.49;97177.44;5134387;27;20196;-51
2022/07/07 02:58:29;;;;;;;1.77;1.50;;;;;;;16.64;67.05;97175.94;5134473;27;20304;-51
2022/07/07 03:00:57;;;;;;;2.88;1.50;;;;;;;16.65;66.17;97181.09;5134970;27;20299;-52
2022/07/07 03:03:24;;;;;;;2.20;1.60;;;;;;;16.46;68.20;97178.75;5136687;27;20281;-52
2022/07/07 03:05:52;;;;;;;2.55;1.73;;;;;;;16.33;68.49;97178.41;5155143;27;20192;-51
2022/07/07 03:08:19;;;;;;;3.63;1.95;;;;;;;16.29;69.58;97163.72;5154333;27;20197;-58
2022/07/07 03:10:46;;;;;;;2.17;1.63;;;;;;;16.22;69.93;97174.25;5161007;27;20232;-52
2022/07/07 03:13:12;;;;;;;2.67;1.80;;;;;;;16.16;69.38;97174.03;5148476;27;20239;-52
2022/07/07 03:15:41;;;;;;;2.83;1.58;;;;;;;16.25;66.77;97179.25;5146243;27;20239;-51
2022/07/07 03:18:08;;;;;;;2.00;1.80;;;;;;;16.08;68.47;97174.06;5139284;27;20248;-52
2022/07/07 03:20:37;;;;;;;1.57;1.47;;;;;;;15.99;71.34;97175.84;5137453;27;20211;-52
2022/07/07 03:23:06;;;;;;;2.37;1.70;;;;;;;15.87;70.70;97175.31;5143516;27;20193;-52
2022/07/07 03:25:34;;;;;;;2.90;1.90;;;;;;;15.84;71.53;97180.13;5135907;27;20196;-52
2022/07/07 03:28:00;;;;;;;1.87;1.77;;;;;;;15.75;71.79;97178.47;5137492;27;20307;-52
2022/07/07 03:30:27;;;;;;;3.07;1.70;;;;;;;15.84;68.75;97185.47;5138575;27;20204;-51
2022/07/07 03:32:53;;;;;;;1.97;1.73;;;;;;;15.71;69.89;97183.28;5153245;27;20304;-52
2022/07/07 03:35:21;;;;;;;3.30;1.97;;;;;;;15.62;71.46;97181.59;5158470;27;20204;-52
2022/07/07 03:37:48;;;;;;;1.67;1.57;;;;;;;15.56;72.80;97182.22;5158091;27;20180;-51
2022/07/07 03:40:19;;;;;;;5.23;1.87;;;;;;;15.50;72.84;97177.53;5159368;27;20188;-51
2022/07/07 03:42:46;;;;;;;1.63;1.60;;;;;;;15.54;71.59;97170.06;5157481;27;20224;-53
2022/07/07 03:45:12;;;;;;;2.53;1.80;;;;;;;15.64;69.14;97173.41;5152640;27;20196;-51
2022/07/07 03:47:39;;;;;;;2.90;2.13;;;;;;;15.54;69.23;97168.22;5155982;27;20208;-51
2022/07/07 03:50:09;;;;;;;2.07;1.80;;;;;;;15.50;69.57;97169.53;5158213;27;20195;-52
2022/07/07 03:52:35;;;;;;;4.37;3.00;;;;;;;15.47;69.49;97167.16;5158790;27;20199;-52
2022/07/07 03:55:02;;;;;;;2.43;2.20;;;;;;;15.39;69.70;97165.31;5157212;27;20220;-52
2022/07/07 03:57:30;;;;;;;2.43;1.83;;;;;;;15.42;69.98;97169.47;5134555;27;20208;-52
2022/07/07 03:59:57;;;;;;;2.17;1.90;;;;;;;15.27;73.27;97171.06;5133555;27;20291;-51
2022/07/07 04:02:24;;;;;;;3.13;1.60;;;;;;;15.18;74.08;97177.34;5133315;27;20288;-52
2022/07/07 04:04:50;;;;;;;4.47;2.27;;;;;;;15.17;74.39;97175.66;5133294;27;20212;-52
2022/07/07 04:07:17;;;;;;;2.70;1.97;;;;;;;15.16;75.32;97179.34;5133919;27;20193;-52
2022/07/07 04:09:44;;;;;;;2.37;2.17;;;;;;;15.15;74.17;97175.00;5133434;27;20204;-52
2022/07/07 04:12:12;;;;;;;2.87;1.93;;;;;;;15.25;72.40;97183.72;5132839;27;20205;-52
2022/07/07 04:14:40;;;;;;;3.13;1.83;;;;;;;15.24;73.93;97187.38;5133659;27;20208;-52
2022/07/07 04:17:09;;;;;;;2.93;1.80;;;;;;;15.30;72.30;97184.91;5133218;27;20291;-51
2022/07/07 04:19:36;;;;;;;2.07;1.63;;;;;;;15.24;74.96;97187.38;5133309;27;20231;-52
2022/07/07 04:22:03;;;;;;;2.73;1.97;;;;;;;15.27;75.88;97181.72;5132146;27;20328;-52
2022/07/07 04:24:31;;;;;;;3.27;3.00;;;;;;;15.39;75.59;97170.63;5132190;27;20200;-51
2022/07/07 04:26:58;;;;;;;6.33;4.40;;;;;;;15.67;75.57;97179.25;5132120;27;20200;-51
2022/07/07 04:29:24;;;;;;;2.87;1.70;;;;;;;15.75;75.02;97175.78;5132653;27;20647;-51
2022/07/07 04:32:08;;;;;;;3.20;1.97;;;;;;;16.08;75.44;97172.22;5132652;27;20215;-52
2022/07/07 04:34:35;;;;;;;3.47;1.87;;;;;;;16.59;70.90;97171.09;5131746;27;20216;-51
2022/07/07 04:37:02;;;;;;;2.37;1.77;;;;;;;16.96;69.32;97172.41;5131505;27;20203;-51
2022/07/07 04:39:31;;;;;;;3.80;1.87;;;;;;;17.11;70.16;97168.03;5132355;27;20204;-52
2022/07/07 04:41:58;;;;;;;1.90;1.80;;;;;;;17.42;68.12;97168.94;5132295;27;20238;-51
2022/07/07 04:44:26;;;;;;;2.93;1.90;;;;;;;17.22;69.76;97168.50;5131587;27;20888;-51
2022/07/07 04:46:53;;;;;;;1.70;1.60;;;;;;;17.44;68.32;97166.91;5132194;27;20296;-52
2022/07/07 04:49:21;;;;;;;3.30;1.70;;;;;;;17.52;67.37;97155.34;5132127;27;20245;-53
2022/07/07 04:51:48;;;;;;;3.90;2.05;;;;;;;17.38;68.01;97154.25;5132794;27;20223;-52
2022/07/07 04:54:16;;;;;;;2.42;1.80;;;;;;;17.43;70.18;97154.53;5133100;27;20227;-52
2022/07/07 04:56:43;;;;;;;2.25;1.88;;;;;;;17.46;69.65;97148.88;5132799;28;20340;-51
2022/07/07 04:59:12;;;;;;;2.30;1.92;;;;;;;17.63;66.07;97147.81;5131405;27;20200;-51
2022/07/07 05:01:39;;;;;;;3.60;2.13;;;;;;;17.78;66.66;97143.38;5131149;28;20628;-52
2022/07/07 05:04:05;;;;;;;1.88;1.77;;;;;;;17.74;67.39;97144.75;5132377;28;20204;-52
2022/07/07 05:06:33;;;;;;;2.53;2.10;;;;;;;17.60;65.11;97164.22;5132683;28;20206;-51
2022/07/07 05:09:02;;;;;;;3.92;1.85;;;;;;;17.41;65.89;97161.91;5131959;28;20520;-52
2022/07/07 05:11:29;;;;;;;2.83;2.22;;;;;;;17.45;68.79;97173.09;5132588;28;20299;-52
2022/07/07 05:13:55;;;;;;;4.63;2.30;;;;;;;17.37;69.93;97176.63;5131144;28;20230;-53
2022/07/07 05:16:23;;;;;;;2.95;1.98;;;;;;;17.38;69.41;97172.97;5132663;28;20624;-52
2022/07/07 05:18:54;;;;;;;1.83;1.73;;;;;;;17.54;68.41;97172.06;5153278;28;20206;-53
2022/07/07 05:21:22;;;;;;;3.20;2.13;;;;;;;17.66;69.91;97171.53;5154661;27;20193;-53
2022/07/07 05:23:50;;;;;;;2.72;1.55;;;;;;;17.85;68.01;97173.78;5153091;27;20192;-53
2022/07/07 05:26:18;;;;;;;3.95;2.10;;;;;;;18.16;61.95;97170.25;5134575;28;20197;-52
2022/07/07 05:28:46;;;;;;;5.30;1.73;;;;;;;18.32;60.45;97173.66;5132740;28;20220;-52
2022/07/07 05:31:18;;;;;;;3.13;1.67;;;;;;;18.47;59.43;97179.06;5133601;28;20197;-52
2022/07/07 05:33:46;;;;;;;1.73;1.63;;;;;;;18.56;60.95;97178.06;5132635;28;20215;-52
2022/07/07 05:36:13;;;;;;;3.15;2.17;;;;;;;18.73;60.01;97178.75;5130210;27;20206;-52
2022/07/07 05:38:49;;;;;;;2.38;1.60;;;;;;;18.92;61.02;97180.88;5132453;27;20204;-52
2022/07/07 05:41:17;;;;;;;1.85;1.73;;;;;;;19.20;57.40;97183.81;5131609;28;20215;-52
2022/07/07 05:43:45;;;;;;;3.38;1.75;;;;;;;19.39;57.83;97196.66;5131891;28;20699;-53
2022/07/07 05:46:13;;;;;;;4.30;1.58;;;;;;;19.59;59.07;97189.75;5131797;28;20220;-52
2022/07/07 05:48:43;;;;;;;3.80;1.80;;;;;;;19.62;56.11;97184.03;5132270;28;20218;-52
2022/07/07 05:51:09;;;;;;;2.95;1.88;;;;;;;19.85;54.88;97175.84;5136806;27;20654;-52
2022/07/07 05:53:36;;;;;;;2.95;1.50;;;;;;;19.96;56.60;97180.75;5140679;27;20228;-52
2022/07/07 05:56:03;;;;;;;2.28;2.00;;;;;;;20.21;57.59;97179.38;5139665;27;20193;-53
2022/07/07 05:58:33;;;;;;;3.60;1.88;;;;;;;20.27;54.67;97180.47;5136183;27;20716;-52
2022/07/07 06:01:00;;;;;;;4.43;2.10;;;;;;;20.41;54.78;97184.97;5141373;27;20279;-52
2022/07/07 06:03:27;;;;;;;3.78;1.70;;;;;;;20.51;54.29;97185.50;5144311;27;20328;-53
2022/07/07 06:05:53;;;;;;;3.63;1.85;;;;;;;20.75;54.21;97187.81;5138158;27;20292;-52
2022/07/07 06:08:22;;;;;;;4.30;1.83;;;;;;;20.65;52.19;97184.59;5135768;27;20222;-52
2022/07/07 06:10:49;;;;;;;4.22;1.92;;;;;;;20.94;53.85;97177.44;5135878;27;20208;-51
2022/07/07 06:13:16;;;;;;;2.42;1.70;;;;;;;21.01;52.43;97171.03;5135650;27;20566;-51
2022/07/07 06:15:44;;;;;;;2.88;1.67;;;;;;;21.24;52.45;97176.22;5135150;27;20568;-52
2022/07/07 06:18:12;;;;;;;3.90;1.77;;;;;;;21.44;52.04;97169.09;5135439;27;20200;-52
2022/07/07 06:20:39;;;;;;;4.25;2.15;;;;;;;21.55;51.21;97179.31;5135595;27;20303;-53
2022/07/07 06:23:07;;;;;;;3.65;1.35;;;;;;;21.53;49.06;97169.78;5134991;27;20207;-52
2022/07/07 06:25:34;;;;;;;2.88;1.75;;;;;;;21.81;50.34;97171.38;5136043;27;20204;-53
2022/07/07 06:28:00;;;;;;;5.60;1.70;;;;;;;21.94;50.15;97172.47;5135223;27;20543;-53
2022/07/07 06:30:30;;;;;;;2.78;1.63;;;;;;;21.90;48.43;97177.44;5135782;27;20548;-52
2022/07/07 06:32:58;;;;;;;3.22;1.83;;;;;;;22.17;48.21;97173.00;5135218;27;20201;-52
2022/07/07 06:35:26;;;;;;;2.10;1.50;;;;;;;22.18;47.32;97169.25;5135319;27;20197;-53
2022/07/07 06:37:53;;;;;;;2.53;1.60;;;;;;;22.53;47.99;97178.84;5135134;27;20203;-53
2022/07/07 06:40:21;;;;;;;2.78;1.48;;;;;;;22.59;45.67;97178.06;5135177;27;20265;-53
2022/07/07 06:42:50;;;;;;;4.65;1.67;;;;;;;22.72;47.28;97171.88;5134640;27;20256;-53
2022/07/07 06:45:17;;;;;;;3.22;1.52;;;;;;;22.92;47.40;97161.13;5134668;27;20335;-52
2022/07/07 06:47:44;;;;;;;2.72;1.67;;;;;;;23.05;45.07;97171.88;5135190;27;20215;-51
2022/07/07 06:50:12;;;;;;;2.67;1.42;;;;;;;23.17;47.08;97168.34;5135142;27;20632;-53
2022/07/07 06:52:39;;;;;;;3.20;1.60;;;;;;;23.28;44.95;97169.56;5134957;27;20335;-53
2022/07/07 06:55:06;;;;;;;7.07;1.60;;;;;;;23.63;44.37;97175.56;5135260;27;20319;-52
2022/07/07 06:57:37;;;;;;;2.35;1.60;;;;;;;23.61;44.39;97180.34;5133691;27;20239;-52
2022/07/07 07:00:06;;;;;;;2.53;1.75;;;;;;;23.66;43.23;97175.97;5134937;27;20215;-52
2022/07/07 07:02:33;;;;;;;3.78;1.50;;;;;;;23.28;43.96;97169.56;5134738;27;21370;-54
2022/07/07 07:05:02;;;;;;;4.30;1.65;;;;;;;23.36;44.18;97168.53;5135216;27;20494;-52
2022/07/07 07:07:34;;;;;;;1.48;1.38;;;;;;;23.44;43.96;97179.13;5134568;27;20861;-52
2022/07/07 07:10:01;;;;;;;1.50;1.40;;;;;;;23.61;44.61;97173.06;5134656;27;20290;-53
2022/07/07 07:12:27;;;;;;;2.78;1.42;;;;;;;24.15;42.33;97174.56;5134838;27;20208;-53
2022/07/07 07:14:54;;;;;;;2.25;1.33;;;;;;;23.97;42.56;97177.09;5134702;27;20225;-52
2022/07/07 07:17:21;;;;;;;3.15;1.55;;;;;;;24.20;43.48;97182.84;5135377;27;20234;-53
2022/07/07 07:19:52;;;;;;;1.85;1.50;;;;;;;24.44;40.24;97186.69;5136079;27;20200;-53
2022/07/07 07:22:24;;;;;;;1.85;1.30;;;;;;;24.61;41.23;97177.84;5136582;27;20538;-52
2022/07/07 07:24:54;;;;;;;3.40;1.70;;;;;;;24.53;40.28;97174.56;5136356;27;20211;-53
2022/07/07 07:27:21;;;;;;;2.28;1.48;;;;;;;24.21;42.25;97173.69;5135951;27;20517;-52
2022/07/07 07:29:47;;;;;;;2.72;1.08;;;;;;;24.77;41.19;97179.16;5133968;27;20279;-52
2022/07/07 07:32:14;;;;;;;2.50;1.40;;;;;;;24.50;41.15;97178.53;5133824;27;20200;-53
2022/07/07 07:34:41;;;;;;;3.10;1.60;;;;;;;24.72;41.52;97166.31;5155575;27;20231;-52
2022/07/07 07:37:08;;;;;;;2.25;1.30;;;;;;;24.74;41.13;97175.03;5152907;27;20265;-52
2022/07/07 07:39:35;;;;;;;2.10;1.50;;;;;;;24.86;42.79;97177.91;5153562;27;20215;-53
2022/07/07 07:42:04;;;;;;;3.40;1.48;;;;;;;24.85;41.64;97175.41;5144925;27;20620;-53
2022/07/07 07:47:16;;;;;;;2.97;2.00;;;;;;;25.01;42.11;97181.09;5133578;27;20203;-52
2022/07/07 07:49:43;;;;;;;1.75;1.60;;;;;;;25.30;43.07;97181.47;5133099;27;20200;-52
2022/07/07 07:52:09;;;;;;;3.70;1.73;;;;;;;25.23;40.94;97173.41;5133416;27;20287;-53
2022/07/07 07:54:36;;;;;;;3.22;1.98;;;;;;;25.20;39.29;97168.44;5133483;27;20231;-52
2022/07/07 07:57:05;;;;;;;3.65;2.20;;;;;;;25.05;43.58;97171.47;5133395;27;20196;-54
2022/07/07 07:59:34;;;;;;;2.53;1.30;;;;;;;25.09;42.62;97172.72;5133187;27;20200;-53
2022/07/07 08:02:02;;;;;;;3.13;1.60;;;;;;;25.19;38.10;97175.72;5132621;27;20216;-53
2022/07/07 08:04:29;;;;;;;1.92;1.27;;;;;;;24.94;39.15;97163.28;5133228;27;20657;-53
2022/07/07 08:06:57;;;;;;;4.53;1.52;;;;;;;24.90;40.28;97168.31;5132922;27;20215;-53
2022/07/07 08:09:24;;;;;;;4.38;1.35;;;;;;;24.85;38.87;97159.16;5133166;27;20236;-52
2022/07/07 08:11:51;;;;;;;2.10;1.45;;;;;;;24.80;38.71;97167.91;5133452;27;20228;-53
2022/07/07 08:14:19;;;;;;;2.40;1.40;;;;;;;25.03;40.46;97156.53;5132374;27;20227;-52
2022/07/07 08:16:46;;;;;;;3.28;1.92;;;;;;;25.36;41.09;97165.19;5133278;27;20204;-53
2022/07/07 08:19:17;;;;;;;2.60;1.33;;;;;;;25.57;40.45;97164.78;5133431;27;20295;-53
2022/07/07 08:21:46;;;;;;;1.50;1.40;;;;;;;25.45;38.61;97155.72;5132966;27;20224;-53
2022/07/07 08:24:15;;;;;;;2.17;1.50;;;;;;;25.55;38.30;97157.91;5132720;27;20625;-53
2022/07/07 08:26:42;;;;;;;2.35;1.40;;;;;;;25.32;37.48;97155.00;5132881;27;20204;-52
2022/07/07 08:29:09;;;;;;;1.23;1.10;;;;;;;25.62;38.74;97155.97;5132688;27;20212;-53
2022/07/07 08:31:37;;;;;;;3.08;1.48;;;;;;;25.54;35.84;97154.38;5132458;27;20196;-53
2022/07/07 08:34:06;;;;;;;2.13;1.52;;;;;;;25.12;40.62;97147.91;5133274;27;20212;-52
2022/07/07 08:36:32;;;;;;;3.22;1.75;;;;;;;25.09;38.58;97155.63;5133855;27;20201;-52
2022/07/07 08:38:59;;;;;;;1.55;1.15;;;;;;;24.94;37.92;97158.66;5133856;27;20263;-53
2022/07/07 08:41:26;;;;;;;2.33;1.13;;;;;;;24.82;37.98;97156.88;5133224;27;20208;-52
2022/07/07 08:43:56;;;;;;;1.77;1.25;;;;;;;24.90;41.21;97162.06;5133357;27;20327;-52
2022/07/07 08:46:25;;;;;;;2.03;1.40;;;;;;;24.72;37.45;97168.19;5133107;27;20311;-52
2022/07/07 08:48:54;;;;;;;2.05;1.42;;;;;;;24.55;41.04;97158.97;5134003;27;20207;-53
2022/07/07 08:51:21;;;;;;;3.05;1.60;;;;;;;24.68;41.44;97164.28;5133716;27;20212;-53
2022/07/07 08:53:49;;;;;;;3.47;1.25;;;;;;;25.11;41.74;97159.78;5133654;27;20203;-53
2022/07/07 08:56:17;;;;;;;1.85;1.60;;;;;;;25.15;38.01;97160.19;5132737;28;20220;-54
2022/07/07 08:58:45;;;;;;;1.85;1.17;;;;;;;25.01;40.17;97164.06;5132717;28;20570;-52
2022/07/07 09:01:16;;;;;;;2.05;1.42;;;;;;;24.93;40.22;97150.78;5132792;28;20500;-53
2022/07/07 09:03:44;;;;;;;1.70;1.13;;;;;;;24.99;40.75;97168.84;5132832;28;20569;-53
2022/07/07 09:06:15;;;;;;;2.50;1.40;;;;;;;24.77;37.16;97160.22;5132804;28;20196;-53
2022/07/07 09:08:42;;;;;;;1.15;1.05;;;;;;;24.53;38.49;97167.28;5133018;28;20237;-52
2022/07/07 09:11:09;;;;;;;2.50;1.05;;;;;;;24.65;37.76;97165.53;5131670;28;20208;-53
2022/07/07 09:13:38;;;;;;;1.20;1.10;;;;;;;24.43;38.94;97166.94;5132006;27;20192;-53
2022/07/07 09:16:14;;;;;;;2.35;1.23;;;;;;;24.81;39.51;97163.31;5128851;28;20315;-53
2022/07/07 09:18:45;;;;;;;1.80;1.30;;;;;;;24.74;38.35;97161.50;5133228;27;20196;-52
2022/07/07 09:21:31;;;;;;;1.75;1.10;;;;;;;25.10;41.10;97160.00;5132940;27;20341;-53
2022/07/07 09:23:59;;;;;;;4.53;1.13;;;;;;;24.98;35.26;97159.06;5132795;27;20200;-53
2022/07/07 09:26:38;;;;;;;2.40;1.02;;;;;;;24.94;37.39;97152.47;5137024;27;20196;-53
2022/07/07 09:29:05;;;;;;;1.23;1.10;;;;;;;25.03;38.94;97161.94;5137283;27;20246;-52
2022/07/07 09:31:57;;;;;;;3.63;1.40;;;;;;;25.13;37.28;97156.84;5136644;27;20261;-52
2022/07/07 09:34:26;;;;;;;4.40;1.60;;;;;;;25.41;40.38;97153.66;5129460;27;20224;-52
2022/07/07 09:39:47;;;;;;;1.98;1.33;;;;;;;24.97;41.14;97147.44;5136771;27;20223;-53
2022/07/07 09:42:21;;;;;;;2.00;1.50;;;;;;;25.06;41.71;97147.97;5136110;27;20672;-53
2022/07/07 09:44:49;;;;;;;3.08;1.33;;;;;;;25.10;39.56;97151.88;5137100;27;20203;-53
2022/07/07 09:47:17;;;;;;;2.28;1.30;;;;;;;25.04;40.15;97158.19;5155919;27;20177;-52
2022/07/07 09:49:55;;;;;;;1.58;1.17;;;;;;;25.02;40.34;97162.97;5156697;27;20204;-53
2022/07/07 09:52:23;;;;;;;1.95;1.20;;;;;;;24.86;38.63;97164.38;5149152;27;20204;-52
2022/07/07 09:54:50;;;;;;;3.60;1.20;;;;;;;24.66;39.88;97160.94;5136788;27;20669;-52
2022/07/07 09:57:20;;;;;;;2.33;1.40;;;;;;;24.62;40.64;97170.56;5136892;27;20336;-53
2022/07/07 09:59:48;;;;;;;2.55;1.17;;;;;;;24.48;41.43;97174.41;5135592;27;20204;-52
2022/07/07 10:02:20;;;;;;;1.33;1.20;;;;;;;24.22;40.91;97175.38;5136208;27;20200;-52
2022/07/07 10:04:49;;;;;;;2.08;1.77;;;;;;;24.21;44.94;97185.34;5135058;27;20185;-52
2022/07/07 10:07:21;;;;;;;6.07;2.17;;;;;;;24.08;44.60;97184.56;5135869;27;20200;-53
2022/07/07 10:09:53;;;;;;;1.77;1.50;;;;;;;24.03;46.45;97187.06;5135954;27;20201;-52
2022/07/07 10:12:27;;;;;;;4.63;1.50;;;;;;;24.03;45.13;97197.84;5135658;27;20214;-53
2022/07/07 10:14:59;;;;;;;2.95;1.23;;;;;;;23.98;45.31;97200.38;5135966;27;20212;-53
2022/07/07 10:17:28;;;;;;;2.13;1.33;;;;;;;24.01;43.95;97200.78;5135403;27;20200;-53
2022/07/07 10:19:55;;;;;;;5.13;1.58;;;;;;;23.87;45.26;97203.75;5135539;27;20214;-52
2022/07/07 10:22:27;;;;;;;3.03;1.30;;;;;;;23.79;45.58;97210.22;5135482;27;20216;-52
2022/07/07 10:24:56;;;;;;;2.15;1.20;;;;;;;24.02;42.14;97207.03;5135226;27;20188;-54
2022/07/07 10:27:24;;;;;;;2.40;1.13;;;;;;;23.76;45.93;97216.88;5133720;27;20580;-52
2022/07/07 10:29:54;;;;;;;1.83;1.40;;;;;;;23.62;47.87;97228.75;5135797;27;20335;-52
2022/07/07 10:32:30;;;;;;;1.38;1.00;;;;;;;23.66;43.70;97226.47;5136077;27;20204;-52
2022/07/07 10:34:59;;;;;;;2.05;1.20;;;;;;;23.61;43.91;97234.34;5135859;27;20222;-52
2022/07/07 10:37:27;;;;;;;2.33;1.23;;;;;;;23.41;44.42;97225.44;5134445;27;20200;-53
2022/07/07 10:39:58;;;;;;;1.75;1.65;;;;;;;23.39;41.94;97231.00;5134547;27;20538;-52
2022/07/07 10:42:35;;;;;;;4.20;2.38;;;;;;;23.08;43.14;97236.22;5135812;27;20239;-53
2022/07/07 10:45:01;;;;;;;2.22;1.05;;;;;;;22.95;42.42;97228.13;5136010;27;20205;-52
2022/07/07 10:47:32;;;;;;;1.75;1.10;;;;;;;22.82;44.73;97226.22;5136183;27;20295;-52
2022/07/07 10:50:01;;;;;;;2.17;1.13;;;;;;;22.84;43.04;97226.03;5136833;27;20200;-52
2022/07/07 10:52:29;;;;;;;2.05;1.25;;;;;;;22.74;45.62;97219.16;5136082;27;20200;-52
2022/07/07 10:55:02;;;;;;;1.90;1.33;;;;;;;22.77;45.47;97223.34;5136569;27;20220;-52
2022/07/07 10:57:32;;;;;;;2.53;1.45;;;;;;;22.81;48.93;97227.28;5137640;27;20536;-53
2022/07/07 11:00:15;;;;;;;2.10;1.10;;;;;;;22.98;46.00;97223.16;5136712;27;20291;-53
2022/07/07 11:02:46;;;;;;;2.13;1.02;;;;;;;23.03;49.02;97211.72;5136037;27;20216;-52
2022/07/07 11:05:33;;;;;;;1.83;1.30;;;;;;;23.17;45.11;97210.69;5136292;27;20188;-52
2022/07/07 11:08:09;;;;;;;2.90;1.42;;;;;;;23.29;45.33;97207.16;5135903;27;20364;-52
2022/07/07 11:10:57;;;;;;;1.33;1.10;;;;;;;23.36;49.01;97209.00;5135780;27;20212;-52
2022/07/07 11:13:32;;;;;;;1.25;1.15;;;;;;;23.53;43.79;97211.09;5135221;27;20549;-52
2022/07/07 11:16:18;;;;;;;1.58;1.27;;;;;;;23.83;49.01;97205.22;5135127;27;20780;-53
2022/07/07 11:18:51;;;;;;;0.77;0.73;;;;;;;24.04;46.11;97205.75;5134784;27;20196;-52
2022/07/07 11:21:18;;;;;;;2.20;1.15;;;;;;;24.04;45.85;97199.53;5136159;27;20605;-52
2022/07/07 11:23:52;;;;;;;1.00;0.85;;;;;;;24.06;44.41;97203.66;5135358;27;20196;-53
2022/07/07 11:26:25;;;;;;;1.30;0.98;;;;;;;24.37;44.49;97200.25;5136398;27;20193;-52
2022/07/07 11:28:53;;;;;;;1.80;1.20;;;;;;;24.72;44.56;97193.38;5136868;27;20414;-54
2022/07/07 11:31:23;;;;;;;2.10;1.95;;;;;;;25.18;44.75;97182.22;5137053;27;20206;-53
2022/07/07 11:33:54;;;;;;;3.58;1.30;;;;;;;25.37;39.81;97174.09;5137805;27;20203;-52
2022/07/07 11:36:26;;;;;;;1.40;0.95;;;;;;;25.36;42.42;97178.72;5139573;27;20216;-54
2022/07/07 11:38:56;;;;;;;3.25;1.35;;;;;;;25.52;42.94;97177.34;5157590;27;20188;-54
2022/07/07 11:41:40;;;;;;;1.50;1.25;;;;;;;25.77;41.62;97174.56;5157441;27;20177;-52
2022/07/07 11:44:17;;;;;;;2.65;1.50;;;;;;;25.92;42.78;97165.00;5160557;27;20218;-52
2022/07/07 11:46:47;;;;;;;3.30;3.05;;;;;;;26.13;40.60;97169.13;5153119;27;20177;-53